sensor_id;sensor_type;location;lat;lon;timestamp;P1;durP1;ratioP1;P2;durP2;ratioP2
67717;SDS011;54511;47.532;19.180;2023-02-22T00:03:05;0.37;;;0.37;;
67717;SDS011;54511;47.532;19.180;2023-02-22T00:06:33;0.17;;;0.17;;
67717;SDS011;54511;47.532;19.180;2023-02-22T00:10:00;0.22;;;0.22;;
67717;SDS011;54511;47.532;19.180;2023-02-22T00:12:49;1.90;;;0.30;;
67717;SDS011;54511;47.532;19.180;2023-02-22T00:16:17;0.62;;;0.62;;
67717;SDS011;54511;47.532;19.180;2023-02-22T00:19:24;5.10;;;1.30;;
67717;SDS011;54511;47.532;19.180;2023-02-22T00:22:32;0.93;;;0.20;;
67717;SDS011;54511;47.532;19.180;2023-02-22T00:25:58;0.60;;;0.60;;
67717;SDS011;54511;47.532;19.180;2023-02-22T00:29:25;1.12;;;1.02;;
67717;SDS011;54511;47.532;19.180;2023-02-22T00:32:14;0.77;;;0.70;;
67717;SDS011;54511;47.532;19.180;2023-02-22T00:35:23;1.33;;;0.88;;
67717;SDS011;54511;47.532;19.180;2023-02-22T00:38:50;0.85;;;0.85;;
67717;SDS011;54511;47.532;19.180;2023-02-22T00:41:37;0.80;;;0.80;;
67717;SDS011;54511;47.532;19.180;2023-02-22T00:44:28;0.70;;;0.55;;
67717;SDS011;54511;47.532;19.180;2023-02-22T00:47:38;0.03;;;0.03;;
67717;SDS011;54511;47.532;19.180;2023-02-22T00:51:06;0.35;;;0.35;;
67717;SDS011;54511;47.532;19.180;2023-02-22T00:54:33;1.12;;;0.57;;
67717;SDS011;54511;47.532;19.180;2023-02-22T00:58:00;0.50;;;0.47;;
67717;SDS011;54511;47.532;19.180;2023-02-22T01:01:27;0.50;;;0.45;;
67717;SDS011;54511;47.532;19.180;2023-02-22T01:04:35;0.43;;;0.30;;
67717;SDS011;54511;47.532;19.180;2023-02-22T01:08:03;0.35;;;0.35;;
67717;SDS011;54511;47.532;19.180;2023-02-22T01:11:30;0.80;;;0.80;;
67717;SDS011;54511;47.532;19.180;2023-02-22T01:14:17;0.30;;;0.30;;
67717;SDS011;54511;47.532;19.180;2023-02-22T01:17:04;1.00;;;0.75;;
67717;SDS011;54511;47.532;19.180;2023-02-22T01:20:33;0.45;;;0.30;;
67717;SDS011;54511;47.532;19.180;2023-02-22T01:23:43;0.20;;;0.20;;
67717;SDS011;54511;47.532;19.180;2023-02-22T01:27:10;0.60;;;0.28;;
67717;SDS011;54511;47.532;19.180;2023-02-22T01:30:37;0.40;;;0.40;;
67717;SDS011;54511;47.532;19.180;2023-02-22T01:33:25;0.47;;;0.35;;
67717;SDS011;54511;47.532;19.180;2023-02-22T01:36:35;0.73;;;0.57;;
67717;SDS011;54511;47.532;19.180;2023-02-22T01:39:45;0.62;;;0.47;;
67717;SDS011;54511;47.532;19.180;2023-02-22T01:42:33;0.43;;;0.43;;
67717;SDS011;54511;47.532;19.180;2023-02-22T01:45:43;1.90;;;0.65;;
67717;SDS011;54511;47.532;19.180;2023-02-22T01:49:10;1.48;;;0.82;;
67717;SDS011;54511;47.532;19.180;2023-02-22T01:52:40;0.10;;;0.10;;
67717;SDS011;54511;47.532;19.180;2023-02-22T01:55:47;0.37;;;0.20;;
67717;SDS011;54511;47.532;19.180;2023-02-22T01:58:56;0.20;;;0.20;;
67717;SDS011;54511;47.532;19.180;2023-02-22T02:02:22;3.03;;;0.93;;
67717;SDS011;54511;47.532;19.180;2023-02-22T02:05:11;1.10;;;0.62;;
67717;SDS011;54511;47.532;19.180;2023-02-22T02:08:26;0.10;;;0.10;;
67717;SDS011;54511;47.532;19.180;2023-02-22T02:11:53;0.55;;;0.45;;
67717;SDS011;54511;47.532;19.180;2023-02-22T02:15:22;5.12;;;0.37;;
67717;SDS011;54511;47.532;19.180;2023-02-22T02:18:48;0.68;;;0.68;;
67717;SDS011;54511;47.532;19.180;2023-02-22T02:22:28;0.20;;;0.10;;
67717;SDS011;54511;47.532;19.180;2023-02-22T02:32:52;0.43;;;0.43;;
67717;SDS011;54511;47.532;19.180;2023-02-22T02:36:21;0.10;;;0.10;;
67717;SDS011;54511;47.532;19.180;2023-02-22T02:39:48;0.32;;;0.32;;
67717;SDS011;54511;47.532;19.180;2023-02-22T02:43:16;1.17;;;0.85;;
67717;SDS011;54511;47.532;19.180;2023-02-22T02:46:46;0.00;;;0.00;;
67717;SDS011;54511;47.532;19.180;2023-02-22T02:50:16;0.75;;;0.30;;
67717;SDS011;54511;47.532;19.180;2023-02-22T02:53:44;0.22;;;0.22;;
67717;SDS011;54511;47.532;19.180;2023-02-22T02:57:11;0.47;;;0.35;;
67717;SDS011;54511;47.532;19.180;2023-02-22T03:00:19;0.43;;;0.43;;
67717;SDS011;54511;47.532;19.180;2023-02-22T03:03:49;0.70;;;0.30;;
67717;SDS011;54511;47.532;19.180;2023-02-22T03:10:44;0.20;;;0.20;;
67717;SDS011;54511;47.532;19.180;2023-02-22T03:14:14;0.27;;;0.27;;
67717;SDS011;54511;47.532;19.180;2023-02-22T03:17:43;1.37;;;0.57;;
67717;SDS011;54511;47.532;19.180;2023-02-22T03:21:10;0.10;;;0.10;;
67717;SDS011;54511;47.532;19.180;2023-02-22T03:24:38;2.22;;;1.27;;
67717;SDS011;54511;47.532;19.180;2023-02-22T03:28:06;0.05;;;0.05;;
67717;SDS011;54511;47.532;19.180;2023-02-22T03:31:13;1.25;;;0.73;;
67717;SDS011;54511;47.532;19.180;2023-02-22T03:34:41;0.00;;;0.00;;
67717;SDS011;54511;47.532;19.180;2023-02-22T03:38:10;1.20;;;1.02;;
67717;SDS011;54511;47.532;19.180;2023-02-22T03:41:38;0.52;;;0.30;;
67717;SDS011;54511;47.532;19.180;2023-02-22T03:45:06;0.10;;;0.10;;
67717;SDS011;54511;47.532;19.180;2023-02-22T03:48:36;3.40;;;0.32;;
67717;SDS011;54511;47.532;19.180;2023-02-22T03:52:03;0.45;;;0.45;;
67717;SDS011;54511;47.532;19.180;2023-02-22T03:55:11;0.08;;;0.00;;
67717;SDS011;54511;47.532;19.180;2023-02-22T03:58:20;0.15;;;0.15;;
67717;SDS011;54511;47.532;19.180;2023-02-22T04:01:47;0.47;;;0.28;;
67717;SDS011;54511;47.532;19.180;2023-02-22T04:05:15;0.10;;;0.10;;
67717;SDS011;54511;47.532;19.180;2023-02-22T04:08:22;0.32;;;0.28;;
67717;SDS011;54511;47.532;19.180;2023-02-22T04:11:09;0.30;;;0.30;;
67717;SDS011;54511;47.532;19.180;2023-02-22T04:13:59;0.20;;;0.20;;
67717;SDS011;54511;47.532;19.180;2023-02-22T04:17:06;0.22;;;0.22;;
67717;SDS011;54511;47.532;19.180;2023-02-22T04:19:55;0.20;;;0.20;;
67717;SDS011;54511;47.532;19.180;2023-02-22T04:23:03;1.50;;;1.05;;
67717;SDS011;54511;47.532;19.180;2023-02-22T04:26:10;0.90;;;0.62;;
67717;SDS011;54511;47.532;19.180;2023-02-22T04:29:20;0.60;;;0.43;;
67717;SDS011;54511;47.532;19.180;2023-02-22T04:32:28;0.77;;;0.45;;
67717;SDS011;54511;47.532;19.180;2023-02-22T04:35:35;0.10;;;0.10;;
67717;SDS011;54511;47.532;19.180;2023-02-22T04:39:02;0.20;;;0.20;;
67717;SDS011;54511;47.532;19.180;2023-02-22T04:42:31;0.40;;;0.30;;
67717;SDS011;54511;47.532;19.180;2023-02-22T04:45:41;0.40;;;0.40;;
67717;SDS011;54511;47.532;19.180;2023-02-22T04:48:54;0.22;;;0.22;;
67717;SDS011;54511;47.532;19.180;2023-02-22T04:52:22;0.47;;;0.47;;
67717;SDS011;54511;47.532;19.180;2023-02-22T04:55:13;0.80;;;0.68;;
67717;SDS011;54511;47.532;19.180;2023-02-22T04:58:21;0.82;;;0.62;;
67717;SDS011;54511;47.532;19.180;2023-02-22T05:01:32;1.65;;;0.52;;
67717;SDS011;54511;47.532;19.180;2023-02-22T05:04:40;0.22;;;0.22;;
67717;SDS011;54511;47.532;19.180;2023-02-22T05:07:27;0.10;;;0.10;;
67717;SDS011;54511;47.532;19.180;2023-02-22T05:10:34;0.03;;;0.03;;
67717;SDS011;54511;47.532;19.180;2023-02-22T05:14:05;0.15;;;0.15;;
67717;SDS011;54511;47.532;19.180;2023-02-22T05:17:14;0.10;;;0.10;;
67717;SDS011;54511;47.532;19.180;2023-02-22T05:20:41;0.85;;;0.40;;
67717;SDS011;54511;47.532;19.180;2023-02-22T05:23:28;0.93;;;0.85;;
67717;SDS011;54511;47.532;19.180;2023-02-22T05:26:16;0.65;;;0.65;;
67717;SDS011;54511;47.532;19.180;2023-02-22T05:29:23;0.03;;;0.03;;
67717;SDS011;54511;47.532;19.180;2023-02-22T05:32:52;0.00;;;0.00;;
67717;SDS011;54511;47.532;19.180;2023-02-22T05:35:59;0.37;;;0.37;;
67717;SDS011;54511;47.532;19.180;2023-02-22T05:39:06;0.20;;;0.20;;
67717;SDS011;54511;47.532;19.180;2023-02-22T05:42:15;0.17;;;0.17;;
67717;SDS011;54511;47.532;19.180;2023-02-22T05:45:23;4.40;;;0.40;;
67717;SDS011;54511;47.532;19.180;2023-02-22T05:55:18;1.27;;;1.17;;
67717;SDS011;54511;47.532;19.180;2023-02-22T05:58:45;0.37;;;0.30;;
67717;SDS011;54511;47.532;19.180;2023-02-22T06:02:00;0.00;;;0.00;;
67717;SDS011;54511;47.532;19.180;2023-02-22T06:05:33;0.68;;;0.68;;
67717;SDS011;54511;47.532;19.180;2023-02-22T06:08:36;0.40;;;0.40;;
67717;SDS011;54511;47.532;19.180;2023-02-22T06:12:00;0.43;;;0.43;;
67717;SDS011;54511;47.532;19.180;2023-02-22T06:15:01;0.10;;;0.10;;
67717;SDS011;54511;47.532;19.180;2023-02-22T06:18:24;0.80;;;0.50;;
67717;SDS011;54511;47.532;19.180;2023-02-22T06:21:36;3.40;;;0.30;;
67717;SDS011;54511;47.532;19.180;2023-02-22T06:25:11;1.30;;;0.68;;
67717;SDS011;54511;47.532;19.180;2023-02-22T06:38:40;0.75;;;0.73;;
67717;SDS011;54511;47.532;19.180;2023-02-22T06:41:41;0.85;;;0.85;;
67717;SDS011;54511;47.532;19.180;2023-02-22T06:44:48;0.60;;;0.60;;
67717;SDS011;54511;47.532;19.180;2023-02-22T06:48:08;0.00;;;0.00;;
67717;SDS011;54511;47.532;19.180;2023-02-22T06:51:46;0.40;;;0.40;;
67717;SDS011;54511;47.532;19.180;2023-02-22T06:54:34;0.20;;;0.20;;
67717;SDS011;54511;47.532;19.180;2023-02-22T06:57:41;0.20;;;0.20;;
67717;SDS011;54511;47.532;19.180;2023-02-22T07:01:08;2.83;;;1.20;;
67717;SDS011;54511;47.532;19.180;2023-02-22T07:04:15;0.35;;;0.35;;
67717;SDS011;54511;47.532;19.180;2023-02-22T07:07:24;0.17;;;0.17;;
67717;SDS011;54511;47.532;19.180;2023-02-22T07:10:51;1.37;;;1.27;;
67717;SDS011;54511;47.532;19.180;2023-02-22T07:13:39;4.90;;;1.23;;
67717;SDS011;54511;47.532;19.180;2023-02-22T07:16:26;0.82;;;0.62;;
67717;SDS011;54511;47.532;19.180;2023-02-22T07:19:34;0.45;;;0.45;;
67717;SDS011;54511;47.532;19.180;2023-02-22T07:22:22;2.15;;;0.75;;
67717;SDS011;54511;47.532;19.180;2023-02-22T07:25:30;1.60;;;1.45;;
67717;SDS011;54511;47.532;19.180;2023-02-22T07:28:37;1.95;;;1.12;;
67717;SDS011;54511;47.532;19.180;2023-02-22T07:31:44;1.05;;;0.93;;
67717;SDS011;54511;47.532;19.180;2023-02-22T07:34:51;1.60;;;1.50;;
67717;SDS011;54511;47.532;19.180;2023-02-22T07:37:40;0.80;;;0.77;;
67717;SDS011;54511;47.532;19.180;2023-02-22T07:40:47;4.10;;;1.05;;
67717;SDS011;54511;47.532;19.180;2023-02-22T07:43:55;1.65;;;0.82;;
67717;SDS011;54511;47.532;19.180;2023-02-22T07:47:02;6.12;;;0.85;;
67717;SDS011;54511;47.532;19.180;2023-02-22T07:50:35;1.25;;;0.73;;
67717;SDS011;54511;47.532;19.180;2023-02-22T07:53:05;0.65;;;0.65;;
67717;SDS011;54511;47.532;19.180;2023-02-22T07:56:32;2.20;;;1.12;;
67717;SDS011;54511;47.532;19.180;2023-02-22T07:59:19;1.10;;;0.95;;
67717;SDS011;54511;47.532;19.180;2023-02-22T08:02:09;2.95;;;1.60;;
67717;SDS011;54511;47.532;19.180;2023-02-22T08:05:37;0.68;;;0.68;;
67717;SDS011;54511;47.532;19.180;2023-02-22T08:12:13;1.67;;;0.98;;
67717;SDS011;54511;47.532;19.180;2023-02-22T08:15:26;1.15;;;1.05;;
67717;SDS011;54511;47.532;19.180;2023-02-22T08:18:32;1.20;;;0.68;;
67717;SDS011;54511;47.532;19.180;2023-02-22T08:21:20;1.40;;;0.88;;
67717;SDS011;54511;47.532;19.180;2023-02-22T08:24:33;1.37;;;1.20;;
67717;SDS011;54511;47.532;19.180;2023-02-22T08:27:34;3.50;;;1.15;;
67717;SDS011;54511;47.532;19.180;2023-02-22T08:30:56;1.15;;;0.88;;
67717;SDS011;54511;47.532;19.180;2023-02-22T08:34:04;0.75;;;0.75;;
67717;SDS011;54511;47.532;19.180;2023-02-22T08:37:15;1.08;;;0.77;;
67717;SDS011;54511;47.532;19.180;2023-02-22T08:40:26;0.32;;;0.32;;
67717;SDS011;54511;47.532;19.180;2023-02-22T08:43:53;2.78;;;1.25;;
67717;SDS011;54511;47.532;19.180;2023-02-22T08:46:40;1.10;;;0.90;;
67717;SDS011;54511;47.532;19.180;2023-02-22T08:49:48;2.50;;;0.62;;
67717;SDS011;54511;47.532;19.180;2023-02-22T08:52:48;0.57;;;0.57;;
67717;SDS011;54511;47.532;19.180;2023-02-22T08:56:27;2.00;;;1.25;;
67717;SDS011;54511;47.532;19.180;2023-02-22T08:59:52;10.75;;;1.85;;
67717;SDS011;54511;47.532;19.180;2023-02-22T09:03:25;1.85;;;1.35;;
67717;SDS011;54511;47.532;19.180;2023-02-22T09:06:25;3.10;;;1.75;;
67717;SDS011;54511;47.532;19.180;2023-02-22T09:09:11;1.62;;;0.80;;
67717;SDS011;54511;47.532;19.180;2023-02-22T09:16:06;2.78;;;1.27;;
67717;SDS011;54511;47.532;19.180;2023-02-22T09:19:33;3.20;;;1.75;;
67717;SDS011;54511;47.532;19.180;2023-02-22T09:22:42;1.60;;;1.30;;
67717;SDS011;54511;47.532;19.180;2023-02-22T09:26:06;2.00;;;1.23;;
67717;SDS011;54511;47.532;19.180;2023-02-22T09:29:24;1.67;;;0.85;;
67717;SDS011;54511;47.532;19.180;2023-02-22T09:32:54;1.52;;;0.82;;
67717;SDS011;54511;47.532;19.180;2023-02-22T09:36:28;2.70;;;1.35;;
67717;SDS011;54511;47.532;19.180;2023-02-22T09:39:18;1.48;;;1.35;;
67717;SDS011;54511;47.532;19.180;2023-02-22T09:42:24;0.98;;;0.68;;
67717;SDS011;54511;47.532;19.180;2023-02-22T09:52:33;2.72;;;1.48;;
67717;SDS011;54511;47.532;19.180;2023-02-22T09:55:58;2.12;;;1.30;;
67717;SDS011;54511;47.532;19.180;2023-02-22T09:59:26;1.40;;;1.08;;
67717;SDS011;54511;47.532;19.180;2023-02-22T10:02:48;1.65;;;1.17;;
67717;SDS011;54511;47.532;19.180;2023-02-22T10:09:48;0.98;;;0.88;;
67717;SDS011;54511;47.532;19.180;2023-02-22T10:13:16;1.80;;;1.33;;
67717;SDS011;54511;47.532;19.180;2023-02-22T10:16:45;4.45;;;0.82;;
67717;SDS011;54511;47.532;19.180;2023-02-22T10:20:17;1.10;;;1.02;;
67717;SDS011;54511;47.532;19.180;2023-02-22T10:23:46;3.05;;;1.45;;
67717;SDS011;54511;47.532;19.180;2023-02-22T10:27:18;0.95;;;0.80;;
67717;SDS011;54511;47.532;19.180;2023-02-22T10:30:45;2.22;;;1.60;;
67717;SDS011;54511;47.532;19.180;2023-02-22T10:34:24;2.47;;;1.00;;
67717;SDS011;54511;47.532;19.180;2023-02-22T10:37:45;0.85;;;0.85;;
67717;SDS011;54511;47.532;19.180;2023-02-22T10:41:18;1.87;;;1.17;;
67717;SDS011;54511;47.532;19.180;2023-02-22T10:48:02;2.20;;;0.98;;
67717;SDS011;54511;47.532;19.180;2023-02-22T10:51:27;2.10;;;1.25;;
67717;SDS011;54511;47.532;19.180;2023-02-22T10:54:31;2.70;;;1.45;;
67717;SDS011;54511;47.532;19.180;2023-02-22T11:01:02;2.00;;;1.52;;
67717;SDS011;54511;47.532;19.180;2023-02-22T11:07:43;1.27;;;1.10;;
67717;SDS011;54511;47.532;19.180;2023-02-22T11:11:19;2.78;;;1.30;;
67717;SDS011;54511;47.532;19.180;2023-02-22T11:21:01;2.40;;;1.55;;
67717;SDS011;54511;47.532;19.180;2023-02-22T11:24:32;3.42;;;1.90;;
67717;SDS011;54511;47.532;19.180;2023-02-22T11:28:06;1.83;;;1.02;;
67717;SDS011;54511;47.532;19.180;2023-02-22T11:31:42;4.10;;;1.48;;
67717;SDS011;54511;47.532;19.180;2023-02-22T11:35:16;2.58;;;1.50;;
67717;SDS011;54511;47.532;19.180;2023-02-22T11:38:37;2.08;;;1.00;;
67717;SDS011;54511;47.532;19.180;2023-02-22T11:49:06;1.95;;;1.48;;
67717;SDS011;54511;47.532;19.180;2023-02-22T11:56:14;1.87;;;1.35;;
67717;SDS011;54511;47.532;19.180;2023-02-22T12:00:11;1.75;;;1.35;;
67717;SDS011;54511;47.532;19.180;2023-02-22T12:11:07;2.28;;;1.12;;
67717;SDS011;54511;47.532;19.180;2023-02-22T12:14:29;1.65;;;1.45;;
67717;SDS011;54511;47.532;19.180;2023-02-22T12:18:00;2.58;;;1.58;;
67717;SDS011;54511;47.532;19.180;2023-02-22T12:21:31;2.62;;;1.35;;
67717;SDS011;54511;47.532;19.180;2023-02-22T12:31:34;2.70;;;1.17;;
67717;SDS011;54511;47.532;19.180;2023-02-22T12:35:02;2.55;;;1.27;;
67717;SDS011;54511;47.532;19.180;2023-02-22T12:38:30;2.08;;;0.93;;
67717;SDS011;54511;47.532;19.180;2023-02-22T12:42:11;2.00;;;1.58;;
67717;SDS011;54511;47.532;19.180;2023-02-22T12:45:46;1.92;;;1.73;;
67717;SDS011;54511;47.532;19.180;2023-02-22T12:49:16;3.35;;;1.60;;
67717;SDS011;54511;47.532;19.180;2023-02-22T12:52:47;1.25;;;0.98;;
67717;SDS011;54511;47.532;19.180;2023-02-22T12:56:17;1.90;;;1.67;;
67717;SDS011;54511;47.532;19.180;2023-02-22T12:59:37;2.85;;;1.75;;
67717;SDS011;54511;47.532;19.180;2023-02-22T13:03:05;1.42;;;1.27;;
67717;SDS011;54511;47.532;19.180;2023-02-22T13:06:47;4.28;;;1.33;;
67717;SDS011;54511;47.532;19.180;2023-02-22T13:10:19;1.73;;;1.20;;
67717;SDS011;54511;47.532;19.180;2023-02-22T13:14:05;1.98;;;1.20;;
67717;SDS011;54511;47.532;19.180;2023-02-22T13:17:53;1.17;;;0.90;;
67717;SDS011;54511;47.532;19.180;2023-02-22T13:21:24;3.17;;;1.55;;
67717;SDS011;54511;47.532;19.180;2023-02-22T13:25:00;4.57;;;2.22;;
67717;SDS011;54511;47.532;19.180;2023-02-22T13:28:27;2.92;;;1.77;;
67717;SDS011;54511;47.532;19.180;2023-02-22T13:32:05;0.73;;;0.68;;
67717;SDS011;54511;47.532;19.180;2023-02-22T13:36:07;2.28;;;1.52;;
67717;SDS011;54511;47.532;19.180;2023-02-22T13:39:58;2.03;;;1.35;;
67717;SDS011;54511;47.532;19.180;2023-02-22T14:00:18;1.67;;;1.30;;
67717;SDS011;54511;47.532;19.180;2023-02-22T14:03:47;1.65;;;1.10;;
67717;SDS011;54511;47.532;19.180;2023-02-22T14:10:45;2.30;;;1.27;;
67717;SDS011;54511;47.532;19.180;2023-02-22T14:14:15;2.65;;;0.98;;
67717;SDS011;54511;47.532;19.180;2023-02-22T14:17:42;1.85;;;1.12;;
67717;SDS011;54511;47.532;19.180;2023-02-22T14:21:09;1.75;;;1.45;;
67717;SDS011;54511;47.532;19.180;2023-02-22T14:24:51;1.95;;;1.48;;
67717;SDS011;54511;47.532;19.180;2023-02-22T14:32:03;2.47;;;1.48;;
67717;SDS011;54511;47.532;19.180;2023-02-22T14:35:37;5.68;;;2.83;;
67717;SDS011;54511;47.532;19.180;2023-02-22T14:38:47;4.57;;;2.37;;
67717;SDS011;54511;47.532;19.180;2023-02-22T14:42:20;2.53;;;2.25;;
67717;SDS011;54511;47.532;19.180;2023-02-22T14:52:16;3.73;;;1.80;;
67717;SDS011;54511;47.532;19.180;2023-02-22T14:55:43;5.40;;;1.40;;
67717;SDS011;54511;47.532;19.180;2023-02-22T14:59:12;4.07;;;2.00;;
67717;SDS011;54511;47.532;19.180;2023-02-22T15:02:39;2.00;;;1.80;;
67717;SDS011;54511;47.532;19.180;2023-02-22T15:05:48;7.15;;;2.25;;
67717;SDS011;54511;47.532;19.180;2023-02-22T15:09:10;5.30;;;3.47;;
67717;SDS011;54511;47.532;19.180;2023-02-22T15:12:37;5.07;;;2.27;;
67717;SDS011;54511;47.532;19.180;2023-02-22T15:15:55;3.97;;;2.22;;
67717;SDS011;54511;47.532;19.180;2023-02-22T15:23:05;1.92;;;1.67;;
67717;SDS011;54511;47.532;19.180;2023-02-22T15:25:37;1.95;;;1.30;;
67717;SDS011;54511;47.532;19.180;2023-02-22T15:29:06;2.58;;;1.92;;
67717;SDS011;54511;47.532;19.180;2023-02-22T15:32:33;4.37;;;2.40;;
67717;SDS011;54511;47.532;19.180;2023-02-22T15:36:00;1.98;;;1.27;;
67717;SDS011;54511;47.532;19.180;2023-02-22T15:38:48;5.18;;;2.72;;
67717;SDS011;54511;47.532;19.180;2023-02-22T15:42:23;5.78;;;2.75;;
67717;SDS011;54511;47.532;19.180;2023-02-22T15:45:53;2.97;;;2.65;;
67717;SDS011;54511;47.532;19.180;2023-02-22T15:49:16;4.75;;;2.03;;
67717;SDS011;54511;47.532;19.180;2023-02-22T15:52:35;3.85;;;1.73;;
67717;SDS011;54511;47.532;19.180;2023-02-22T15:55:53;6.85;;;2.45;;
67717;SDS011;54511;47.532;19.180;2023-02-22T15:59:23;3.65;;;2.30;;
67717;SDS011;54511;47.532;19.180;2023-02-22T16:02:50;3.15;;;1.55;;
67717;SDS011;54511;47.532;19.180;2023-02-22T16:06:22;5.30;;;1.40;;
67717;SDS011;54511;47.532;19.180;2023-02-22T16:09:46;1.45;;;1.35;;
67717;SDS011;54511;47.532;19.180;2023-02-22T16:13:18;3.20;;;1.75;;
67717;SDS011;54511;47.532;19.180;2023-02-22T17:20:15;7.70;;;3.33;;
67717;SDS011;54511;47.532;19.180;2023-02-22T20:44:28;1.45;;;1.35;;
67717;SDS011;54511;47.532;19.180;2023-02-22T20:47:37;0.68;;;0.68;;
67717;SDS011;54511;47.532;19.180;2023-02-22T20:51:09;1.20;;;0.90;;
67717;SDS011;54511;47.532;19.180;2023-02-22T20:54:29;5.18;;;1.33;;
67717;SDS011;54511;47.532;19.180;2023-02-22T20:57:41;2.00;;;1.70;;
67717;SDS011;54511;47.532;19.180;2023-02-22T21:01:12;0.62;;;0.62;;
67717;SDS011;54511;47.532;19.180;2023-02-22T21:04:39;1.08;;;0.50;;
67717;SDS011;54511;47.532;19.180;2023-02-22T21:07:27;1.58;;;1.48;;
67717;SDS011;54511;47.532;19.180;2023-02-22T21:10:38;1.55;;;0.57;;
67717;SDS011;54511;47.532;19.180;2023-02-22T21:14:09;3.12;;;0.93;;
67717;SDS011;54511;47.532;19.180;2023-02-22T21:17:38;2.03;;;1.33;;
67717;SDS011;54511;47.532;19.180;2023-02-22T21:20:47;3.55;;;1.67;;
67717;SDS011;54511;47.532;19.180;2023-02-22T21:24:14;1.40;;;0.95;;
67717;SDS011;54511;47.532;19.180;2023-02-22T21:27:26;0.30;;;0.25;;
67717;SDS011;54511;47.532;19.180;2023-02-22T21:30:33;0.75;;;0.62;;
67717;SDS011;54511;47.532;19.180;2023-02-22T21:33:42;3.40;;;1.75;;
67717;SDS011;54511;47.532;19.180;2023-02-22T21:36:49;3.95;;;0.55;;
67717;SDS011;54511;47.532;19.180;2023-02-22T21:39:58;2.17;;;1.48;;
67717;SDS011;54511;47.532;19.180;2023-02-22T21:43:05;0.90;;;0.90;;
67717;SDS011;54511;47.532;19.180;2023-02-22T21:46:12;0.60;;;0.60;;
67717;SDS011;54511;47.532;19.180;2023-02-22T21:49:01;8.27;;;1.35;;
67717;SDS011;54511;47.532;19.180;2023-02-22T21:52:29;0.95;;;0.77;;
67717;SDS011;54511;47.532;19.180;2023-02-22T21:55:36;0.80;;;0.80;;
67717;SDS011;54511;47.532;19.180;2023-02-22T21:58:24;2.85;;;1.12;;
67717;SDS011;54511;47.532;19.180;2023-02-22T22:01:12;1.23;;;1.10;;
67717;SDS011;54511;47.532;19.180;2023-02-22T22:04:41;1.80;;;0.85;;
67717;SDS011;54511;47.532;19.180;2023-02-22T22:08:09;6.80;;;0.95;;
67717;SDS011;54511;47.532;19.180;2023-02-22T22:11:16;2.70;;;1.05;;
67717;SDS011;54511;47.532;19.180;2023-02-22T22:14:03;1.80;;;0.93;;
67717;SDS011;54511;47.532;19.180;2023-02-22T22:17:30;1.70;;;1.10;;
67717;SDS011;54511;47.532;19.180;2023-02-22T22:20:40;0.68;;;0.68;;
67717;SDS011;54511;47.532;19.180;2023-02-22T22:24:13;3.12;;;1.30;;
67717;SDS011;54511;47.532;19.180;2023-02-22T22:27:20;1.65;;;0.30;;
67717;SDS011;54511;47.532;19.180;2023-02-22T22:30:28;4.53;;;1.75;;
67717;SDS011;54511;47.532;19.180;2023-02-22T22:33:35;0.22;;;0.22;;
67717;SDS011;54511;47.532;19.180;2023-02-22T22:37:04;0.50;;;0.50;;
67717;SDS011;54511;47.532;19.180;2023-02-22T22:40:13;0.82;;;0.50;;
67717;SDS011;54511;47.532;19.180;2023-02-22T22:43:21;0.52;;;0.40;;
67717;SDS011;54511;47.532;19.180;2023-02-22T22:46:49;2.55;;;1.12;;
67717;SDS011;54511;47.532;19.180;2023-02-22T22:50:17;1.55;;;0.82;;
67717;SDS011;54511;47.532;19.180;2023-02-22T22:53:48;1.42;;;1.17;;
67717;SDS011;54511;47.532;19.180;2023-02-22T22:57:16;0.20;;;0.20;;
67717;SDS011;54511;47.532;19.180;2023-02-22T23:00:04;1.42;;;1.33;;
67717;SDS011;54511;47.532;19.180;2023-02-22T23:03:14;0.70;;;0.70;;
67717;SDS011;54511;47.532;19.180;2023-02-22T23:06:22;0.50;;;0.40;;
67717;SDS011;54511;47.532;19.180;2023-02-22T23:09:51;1.92;;;1.40;;
67717;SDS011;54511;47.532;19.180;2023-02-22T23:12:59;0.82;;;0.62;;
67717;SDS011;54511;47.532;19.180;2023-02-22T23:16:06;0.68;;;0.68;;
67717;SDS011;54511;47.532;19.180;2023-02-22T23:19:35;1.10;;;0.73;;
67717;SDS011;54511;47.532;19.180;2023-02-22T23:22:22;0.95;;;0.55;;
67717;SDS011;54511;47.532;19.180;2023-02-22T23:25:12;0.70;;;0.70;;
67717;SDS011;54511;47.532;19.180;2023-02-22T23:28:39;0.95;;;0.80;;
67717;SDS011;54511;47.532;19.180;2023-02-22T23:32:09;0.43;;;0.43;;
67717;SDS011;54511;47.532;19.180;2023-02-22T23:34:56;0.85;;;0.85;;
67717;SDS011;54511;47.532;19.180;2023-02-22T23:37:48;1.52;;;0.98;;
67717;SDS011;54511;47.532;19.180;2023-02-22T23:40:56;0.75;;;0.75;;
67717;SDS011;54511;47.532;19.180;2023-02-22T23:44:24;2.40;;;1.40;;
67717;SDS011;54511;47.532;19.180;2023-02-22T23:47:32;1.15;;;1.05;;
67717;SDS011;54511;47.532;19.180;2023-02-22T23:51:04;1.35;;;1.02;;
67717;SDS011;54511;47.532;19.180;2023-02-22T23:54:28;0.52;;;0.52;;
67717;SDS011;54511;47.532;19.180;2023-02-22T23:57:37;1.90;;;0.73;;
